Aérodrome :
LOGIN :

S'inscrire | Disclaimer

   EN    FR    IT 

 










Légende :    VFR   VFR Marginal   IFR   IFR Intensif   IFR Très Intensif
Visi : 
Plafond : 
>= 8 km
>= 3000ft
5 à 8 km
1000 à 3000 ft
1500m à 5 km
500 à 1000 ft
800 à 1500m
200 à 500 ft
< 800m
< 200 ft
Symboles :   Orages  Brouillard  Fortes neiges  Fortes précipitations  Vent > 20 kt
SIGMETs :   Divers  Orages  Givrage  Turbulence  Onde Orograph.  Cendres Volcan.






- Altitude de l'aérodrome : 1367 ft
- Code IATA : FDH


EDNY - Friedrichshafen

DERNIER METAR :
  • 171250Z 26010KT 240V300 9999 BKN058 13/06 Q1019

METARs EXPIRÉS :
  • 171220Z 27008KT 240V320 CAVOK 14/06 Q1018
  • 171150Z 25007KT 220V280 CAVOK 14/05 Q1018
  • 171120Z 22006KT CAVOK 14/05 Q1018
  • 171050Z 25006KT 220V290 CAVOK 13/05 Q1018
  • 171020Z 26005KT 230V300 CAVOK 13/04 Q1018
  • 170950Z 21005KT 180V240 CAVOK 13/04 Q1018

TAF TAF EDNY
Valide du 17 à 12h jusqu'au 18 à 12h UTC


171100Z 1712/1812 24008KT CAVOK
PROB30
TEMPO 1713/1716 4000 RA BKN014
TEMPO 1718/1724 26015G25KT
TEMPO 1809/1812 26015G25KT



MET'MAP, la Météo Aéronautique d'un coup d'oeil ! - Copyright ORBIFLY Décembre 2007 - Disclaimer

ORBIFLY MET'MAP TEAM :

Programmation & Développement : Alexandra Zaïnal
Sur une idée originale de : Baudouin d'Aumeries
Assistance à la programmation : Marc-Olivier Méhu
Soutien technique & logistique : Manuel Goepfert

Contact : metmap@orbifly.com




SOURCES & CREDITS :

   NOAA